createdAt,value
2023-01-03T00:01:15.134Z,10.58
2023-01-03T00:03:42.420Z,10.71
2023-01-03T00:06:17.992Z,10.61
2023-01-03T00:08:45.497Z,10.80
2023-01-03T00:11:18.874Z,10.63
2023-01-03T00:13:46.325Z,10.31
2023-01-03T00:16:20.248Z,10.19
2023-01-03T00:18:47.541Z,10.36
2023-01-03T00:21:15.665Z,10.61
2023-01-03T00:23:43.578Z,10.52
2023-01-03T00:26:12.766Z,10.46
2023-01-03T00:28:40.112Z,10.27
2023-01-03T00:31:09.022Z,10.20
2023-01-03T00:33:39.026Z,10.42
2023-01-03T00:36:08.352Z,10.32
2023-01-03T00:38:36.496Z,10.29
2023-01-03T00:41:10.791Z,10.12
2023-01-03T00:43:39.232Z,10.30
2023-01-03T00:46:07.383Z,10.14
2023-01-03T00:48:35.128Z,10.35
2023-01-03T00:51:16.401Z,10.03
2023-01-03T00:53:45.845Z,10.48
2023-01-03T00:56:17.191Z,10.15
2023-01-03T00:58:44.765Z,10.27
2023-01-03T01:01:18.023Z,10.08
2023-01-03T01:03:52.434Z,10.37
2023-01-03T01:06:25.256Z,10.15
2023-01-03T01:08:54.661Z,9.70
2023-01-03T01:11:22.597Z,10.18
2023-01-03T01:13:50.430Z,10.28
2023-01-03T01:16:21.043Z,10.45
2023-01-03T01:18:50.196Z,10.43
2023-01-03T01:21:23.427Z,10.49
2023-01-03T01:23:50.995Z,10.46
2023-01-03T01:26:19.646Z,10.60
2023-01-03T01:28:48.096Z,10.32
2023-01-03T01:31:18.723Z,10.64
2023-01-03T01:33:46.317Z,10.47
2023-01-03T01:36:19.860Z,10.48
2023-01-03T01:38:48.365Z,10.38
2023-01-03T01:41:40.967Z,10.43
2023-01-03T01:44:41.457Z,10.61
2023-01-03T01:47:18.155Z,10.46
2023-01-03T01:49:47.589Z,10.49
2023-01-03T01:52:17.123Z,10.59
2023-01-03T01:54:45.202Z,10.45
2023-01-03T01:57:16.800Z,10.65
2023-01-03T01:59:44.588Z,10.65
2023-01-03T02:02:15.295Z,10.82
2023-01-03T02:04:42.792Z,11.19
2023-01-03T02:07:10.120Z,11.21
2023-01-03T02:09:38.526Z,11.26
2023-01-03T02:12:45.729Z,11.15
2023-01-03T02:15:22.110Z,10.85
2023-01-03T02:18:16.965Z,10.96
2023-01-03T02:20:59.305Z,11.03
2023-01-03T02:23:48.477Z,11.21
2023-01-03T02:26:28.032Z,11.29
2023-01-03T02:29:06.215Z,10.89
2023-01-03T02:32:00.899Z,10.94
2023-01-03T02:34:48.212Z,11.36
2023-01-03T02:37:55.511Z,11.44
2023-01-03T02:40:31.843Z,11.58
2023-01-03T02:43:06.229Z,11.41
2023-01-03T02:45:52.085Z,11.00
2023-01-03T02:48:44.803Z,11.38
2023-01-03T02:51:23.766Z,11.45
2023-01-03T02:53:51.535Z,11.71
2023-01-03T02:56:28.994Z,11.70
2023-01-03T02:59:02.480Z,11.70
2023-01-03T03:01:30.488Z,11.15
2023-01-03T03:03:58.450Z,11.40
2023-01-03T03:06:33.068Z,11.76
2023-01-03T03:09:00.414Z,11.34
2023-01-03T03:11:48.472Z,11.25
2023-01-03T03:14:18.387Z,11.42
2023-01-03T03:16:49.648Z,11.45
2023-01-03T03:19:44.727Z,11.49
2023-01-03T03:23:12.239Z,11.63
2023-01-03T03:25:55.024Z,11.61
2023-01-03T03:28:36.449Z,11.43
2023-01-03T03:31:08.026Z,11.32
2023-01-03T03:34:15.623Z,10.88
2023-01-03T03:37:00.527Z,10.98
2023-01-03T03:39:47.363Z,10.84
2023-01-03T03:42:46.001Z,11.57
2023-01-03T03:45:20.041Z,11.74
2023-01-03T03:47:51.443Z,11.66
2023-01-03T03:50:30.195Z,11.46
2023-01-03T03:53:02.576Z,11.26
2023-01-03T03:55:51.906Z,11.53
2023-01-03T03:58:23.629Z,11.90
2023-01-03T04:00:52.183Z,11.63
2023-01-03T04:03:21.739Z,11.56
2023-01-03T04:06:02.113Z,11.64
2023-01-03T04:08:29.565Z,11.04
2023-01-03T04:11:05.649Z,11.21
2023-01-03T04:13:34.213Z,11.33
2023-01-03T04:16:01.947Z,11.61
2023-01-03T04:18:29.258Z,11.33
2023-01-03T04:20:56.571Z,11.86
2023-01-03T04:23:24.039Z,11.63
2023-01-03T04:25:51.506Z,11.76
2023-01-03T04:28:19.054Z,11.85
2023-01-03T04:30:46.686Z,11.81
2023-01-03T04:33:14.359Z,11.35
2023-01-03T04:35:41.758Z,10.98
2023-01-03T04:38:09.291Z,10.19
2023-01-03T04:40:38.774Z,10.34
2023-01-03T04:43:24.527Z,11.05
2023-01-03T04:45:52.106Z,11.09
2023-01-03T04:48:19.514Z,10.83
2023-01-03T04:50:57.042Z,10.48
2023-01-03T04:53:25.280Z,10.69
2023-01-03T04:55:53.806Z,10.32
2023-01-03T04:58:21.128Z,10.03
2023-01-03T05:00:48.714Z,10.85
2023-01-03T05:03:18.241Z,11.25
2023-01-03T05:05:47.417Z,11.09
2023-01-03T05:08:14.658Z,11.26
2023-01-03T05:10:41.985Z,11.21
2023-01-03T05:13:09.421Z,11.79
2023-01-03T05:15:38.095Z,11.80
2023-01-03T05:18:05.807Z,11.53
2023-01-03T05:20:54.862Z,11.06
2023-01-03T05:23:41.673Z,11.39
2023-01-03T05:26:14.745Z,11.81
2023-01-03T05:28:43.801Z,11.24
2023-01-03T05:31:11.175Z,10.76
2023-01-03T05:33:39.306Z,11.12
2023-01-03T05:36:07.071Z,10.95
2023-01-03T05:38:34.407Z,11.07
2023-01-03T05:41:01.644Z,11.31
2023-01-03T05:43:29.067Z,10.73
2023-01-03T05:45:56.676Z,11.25
2023-01-03T05:48:24.087Z,11.11
2023-01-03T05:50:52.261Z,10.34
2023-01-03T05:53:19.743Z,10.48
2023-01-03T05:55:47.088Z,10.94
2023-01-03T05:58:14.599Z,10.85
2023-01-03T06:00:41.851Z,10.57
2023-01-03T06:03:09.343Z,10.37
2023-01-03T06:05:36.673Z,10.60
2023-01-03T06:08:04.001Z,10.39
2023-01-03T06:10:31.372Z,10.48
2023-01-03T06:12:59.468Z,10.37
2023-01-03T06:15:26.863Z,10.03
2023-01-03T06:18:02.247Z,10.65
2023-01-03T06:20:30.127Z,10.91
2023-01-03T06:22:57.652Z,10.78
2023-01-03T06:25:25.446Z,10.30
2023-01-03T06:27:52.701Z,10.52
2023-01-03T06:30:20.928Z,10.46
2023-01-03T06:32:48.641Z,10.67
2023-01-03T06:35:16.091Z,10.79
2023-01-03T06:37:43.448Z,10.22
2023-01-03T06:40:11.147Z,10.24
2023-01-03T06:42:45.122Z,10.06
2023-01-03T06:45:32.763Z,10.16
2023-01-03T06:48:25.512Z,10.36
2023-01-03T06:51:11.193Z,9.84
2023-01-03T06:53:39.850Z,9.57
2023-01-03T06:56:07.635Z,9.66
2023-01-03T06:58:35.994Z,9.45
2023-01-03T07:01:06.100Z,9.44
2023-01-03T07:03:33.525Z,9.52
2023-01-03T07:06:00.659Z,9.58
2023-01-03T07:08:27.936Z,10.15
2023-01-03T07:10:55.379Z,9.80
2023-01-03T07:13:41.470Z,9.59
2023-01-03T07:16:15.047Z,10.19
2023-01-03T07:18:43.178Z,9.70
2023-01-03T07:21:10.763Z,10.13
2023-01-03T07:23:38.717Z,10.36
2023-01-03T07:26:06.373Z,10.98
2023-01-03T07:28:33.821Z,10.68
2023-01-03T07:31:03.226Z,11.20
2023-01-03T07:33:30.960Z,11.29
2023-01-03T07:36:11.504Z,10.91
2023-01-03T07:38:41.336Z,10.56
2023-01-03T07:41:08.884Z,10.40
2023-01-03T07:43:38.151Z,10.47
2023-01-03T07:46:07.838Z,10.51
2023-01-03T07:48:35.602Z,11.37
2023-01-03T07:51:03.590Z,11.09
2023-01-03T07:53:31.793Z,11.46
2023-01-03T07:56:09.095Z,11.92
2023-01-03T07:58:41.343Z,11.78
2023-01-03T08:01:09.648Z,11.62
2023-01-03T08:03:38.430Z,11.43
2023-01-03T08:06:08.406Z,11.49
2023-01-03T08:08:36.199Z,11.56
2023-01-03T08:11:22.393Z,11.45
2023-01-03T08:13:50.266Z,11.22
2023-01-03T08:16:18.934Z,10.67
2023-01-03T08:18:46.324Z,10.38
2023-01-03T08:21:14.990Z,10.95
2023-01-03T08:23:42.922Z,10.95
2023-01-03T08:26:15.092Z,10.91
2023-01-03T08:28:43.935Z,11.08
2023-01-03T08:31:31.668Z,11.10
2023-01-03T08:34:02.042Z,11.73
2023-01-03T08:36:34.082Z,10.86
2023-01-03T08:39:07.377Z,10.92
2023-01-03T08:41:38.674Z,10.84
2023-01-03T08:44:07.151Z,11.44
2023-01-03T08:46:34.832Z,11.05
2023-01-03T08:49:02.436Z,11.29
2023-01-03T08:51:30.039Z,11.46
2023-01-03T08:53:57.371Z,10.96
2023-01-03T08:56:24.727Z,11.07
2023-01-03T08:58:52.126Z,10.63
2023-01-03T09:01:21.050Z,10.63
2023-01-03T09:03:48.544Z,10.08
2023-01-03T09:06:16.100Z,10.65
2023-01-03T09:08:43.468Z,10.70
2023-01-03T09:11:11.300Z,10.86
2023-01-03T09:13:38.908Z,10.58
2023-01-03T09:16:08.879Z,10.63
2023-01-03T09:18:37.541Z,10.74
2023-01-03T09:21:05.459Z,11.12
2023-01-03T09:23:34.245Z,11.16
2023-01-03T09:26:01.713Z,11.60
2023-01-03T09:28:29.988Z,11.79
2023-01-03T09:30:58.070Z,12.04
2023-01-03T09:33:28.558Z,11.70
2023-01-03T09:35:56.392Z,11.62
2023-01-03T09:38:23.782Z,11.94
2023-01-03T09:41:03.189Z,11.36
2023-01-03T09:43:37.113Z,11.38
2023-01-03T09:46:06.014Z,11.20
2023-01-03T09:48:35.942Z,11.33
2023-01-03T09:51:25.904Z,11.01
2023-01-03T09:54:10.854Z,10.82
2023-01-03T09:56:56.734Z,11.02
2023-01-03T09:59:43.127Z,11.05
2023-01-03T10:02:48.141Z,11.08
2023-01-03T10:05:34.120Z,11.82
2023-01-03T10:08:28.390Z,12.27
2023-01-03T10:11:10.306Z,12.43
2023-01-03T10:13:57.080Z,12.33
2023-01-03T10:16:42.032Z,11.14
2023-01-03T10:19:19.579Z,12.08
2023-01-03T10:22:10.467Z,11.99
2023-01-03T10:24:46.812Z,11.93
2023-01-03T10:27:25.321Z,11.82
2023-01-03T10:29:55.933Z,11.41
2023-01-03T10:32:54.188Z,11.74
2023-01-03T10:35:29.786Z,11.85
2023-01-03T10:37:58.550Z,12.29
2023-01-03T10:40:50.205Z,12.34
2023-01-03T10:43:28.502Z,12.35
2023-01-03T10:46:01.720Z,12.66
2023-01-03T10:49:16.822Z,12.22
2023-01-03T10:51:40.049Z,12.22
2023-01-03T10:54:32.148Z,12.21
2023-01-03T10:56:59.626Z,12.22
2023-01-03T10:59:27.966Z,12.63
2023-01-03T11:02:12.888Z,12.87
2023-01-03T11:04:40.882Z,13.13
2023-01-03T11:07:08.108Z,13.08
2023-01-03T11:09:55.045Z,13.03
2023-01-03T11:12:34.126Z,13.09
2023-01-03T11:15:20.908Z,13.08
2023-01-03T11:17:56.830Z,13.02
2023-01-03T11:20:36.146Z,13.25
2023-01-03T11:23:10.622Z,13.12
2023-01-03T11:25:54.153Z,13.28
2023-01-03T11:29:01.481Z,13.40
2023-01-03T11:31:40.512Z,12.59
2023-01-03T11:35:20.258Z,12.60
2023-01-03T11:37:46.054Z,12.91
2023-01-03T11:40:25.986Z,13.21
2023-01-03T11:42:53.323Z,13.11
2023-01-03T11:45:30.715Z,13.38
2023-01-03T11:48:27.650Z,13.32
2023-01-03T11:51:18.047Z,13.30
2023-01-03T11:54:05.383Z,13.16
2023-01-03T11:56:44.761Z,13.37
2023-01-03T11:59:50.621Z,13.43
2023-01-03T12:02:36.784Z,13.40
2023-01-03T12:05:10.244Z,13.08
2023-01-03T12:07:48.962Z,13.28
2023-01-03T12:10:35.072Z,13.57
2023-01-03T12:13:10.703Z,13.71
2023-01-03T12:15:56.491Z,13.54
2023-01-03T12:18:41.960Z,13.56
2023-01-03T12:21:22.038Z,13.65
2023-01-03T12:24:03.146Z,13.15
2023-01-03T12:26:31.069Z,13.31
2023-01-03T12:29:21.310Z,13.57
2023-01-03T12:31:51.700Z,13.28
2023-01-03T12:34:37.432Z,13.40
2023-01-03T12:37:20.834Z,13.66
2023-01-03T12:39:55.487Z,13.60
2023-01-03T12:42:43.285Z,13.69
2023-01-03T12:45:34.666Z,13.69
2023-01-03T12:48:27.599Z,13.52
2023-01-03T12:50:55.229Z,13.56
2023-01-03T12:54:27.628Z,13.82
2023-01-03T12:57:25.927Z,13.78
2023-01-03T13:00:08.784Z,13.75
2023-01-03T13:02:39.550Z,13.39
2023-01-03T13:05:35.176Z,12.82
2023-01-03T13:08:33.094Z,13.03
2023-01-03T13:11:12.308Z,13.10
2023-01-03T13:13:49.446Z,12.62
2023-01-03T13:16:36.706Z,12.79
2023-01-03T13:19:22.423Z,13.23
2023-01-03T13:21:52.713Z,13.18
2023-01-03T13:24:49.454Z,13.58
2023-01-03T13:27:22.859Z,13.60
2023-01-03T13:29:50.159Z,13.57
2023-01-03T13:32:25.311Z,13.75
2023-01-03T13:34:58.876Z,13.67
2023-01-03T13:37:27.699Z,13.89
2023-01-03T13:39:58.420Z,13.99
2023-01-03T13:42:34.937Z,14.01
2023-01-03T13:45:11.486Z,13.95
2023-01-03T13:47:42.320Z,13.98
2023-01-03T13:50:28.371Z,13.96
2023-01-03T13:52:58.639Z,13.86
2023-01-03T13:55:55.097Z,14.01
2023-01-03T13:58:27.657Z,13.87
2023-01-03T14:01:05.257Z,13.66
2023-01-03T14:04:14.671Z,13.77
2023-01-03T14:06:47.564Z,13.71
2023-01-03T14:09:36.987Z,13.37
2023-01-03T14:12:33.682Z,13.55
2023-01-03T14:15:21.241Z,13.84
2023-01-03T14:17:58.267Z,13.53
2023-01-03T14:20:32.699Z,13.59
2023-01-03T14:23:31.280Z,13.68
2023-01-03T14:25:54.442Z,13.78
2023-01-03T14:28:25.215Z,13.71
2023-01-03T14:31:02.986Z,13.55
2023-01-03T14:33:36.213Z,13.17
2023-01-03T14:36:09.788Z,13.51
2023-01-03T14:38:37.063Z,13.68
2023-01-03T14:41:04.611Z,13.84
2023-01-03T14:43:34.196Z,13.87
2023-01-03T14:46:07.088Z,14.03
2023-01-03T14:48:34.633Z,13.61
2023-01-03T14:51:03.486Z,13.60
2023-01-03T14:53:33.046Z,13.64
2023-01-03T14:56:00.752Z,13.43
2023-01-03T14:58:36.199Z,13.58
2023-01-03T15:01:05.661Z,13.34
2023-01-03T15:03:39.204Z,13.53
2023-01-03T15:06:24.214Z,13.51
2023-01-03T15:08:55.955Z,13.32
2023-01-03T15:12:01.826Z,13.19
2023-01-03T15:14:33.890Z,13.48
2023-01-03T15:17:23.437Z,13.42
2023-01-03T15:19:54.499Z,13.62
2023-01-03T15:22:24.268Z,13.32
2023-01-03T15:25:01.924Z,13.35
2023-01-03T15:27:38.208Z,13.39
2023-01-03T15:30:15.521Z,13.32
2023-01-03T15:32:49.233Z,13.74
2023-01-03T15:35:40.071Z,13.31
2023-01-03T15:38:26.540Z,13.23
2023-01-03T15:40:53.941Z,13.28
2023-01-03T15:43:23.817Z,13.27
2023-01-03T15:46:10.433Z,13.10
2023-01-03T15:48:38.291Z,13.44
2023-01-03T15:51:06.410Z,13.55
2023-01-03T15:53:42.789Z,13.38
2023-01-03T15:56:29.756Z,13.40
2023-01-03T15:58:57.598Z,13.14
2023-01-03T16:01:25.690Z,13.03
2023-01-03T16:03:53.940Z,13.14
2023-01-03T16:06:21.535Z,12.62
2023-01-03T16:08:48.908Z,12.81
2023-01-03T16:11:21.058Z,12.64
2023-01-03T16:13:53.724Z,13.06
2023-01-03T16:16:35.857Z,13.24
2023-01-03T16:19:04.289Z,13.03
2023-01-03T16:21:31.766Z,13.33
2023-01-03T16:23:59.352Z,13.33
2023-01-03T16:26:26.866Z,13.01
2023-01-03T16:28:54.267Z,13.27
2023-01-03T16:31:28.890Z,13.54
2023-01-03T16:33:56.345Z,13.22
2023-01-03T16:36:37.083Z,13.27
2023-01-03T16:39:06.980Z,13.23
2023-01-03T16:41:34.320Z,13.26
2023-01-03T16:44:01.676Z,13.25
2023-01-03T16:46:29.583Z,13.30
2023-01-03T16:48:58.075Z,13.31
2023-01-03T16:51:31.204Z,13.18
2023-01-03T16:53:59.265Z,13.16
2023-01-03T16:56:27.170Z,12.82
2023-01-03T16:58:54.374Z,13.00
2023-01-03T17:01:21.746Z,13.05
2023-01-03T17:03:49.126Z,13.51
2023-01-03T17:06:27.352Z,13.46
2023-01-03T17:08:57.813Z,13.48
2023-01-03T17:11:26.467Z,12.88
2023-01-03T17:13:59.471Z,13.10
2023-01-03T17:16:26.904Z,13.06
2023-01-03T17:18:54.223Z,13.22
2023-01-03T17:21:27.164Z,13.27
2023-01-03T17:23:59.903Z,13.38
2023-01-03T17:26:27.989Z,13.46
2023-01-03T17:28:55.615Z,13.39
2023-01-03T17:31:24.860Z,13.49
2023-01-03T17:33:52.776Z,13.46
2023-01-03T17:36:31.003Z,13.25
2023-01-03T17:39:02.868Z,13.43
2023-01-03T17:41:50.885Z,13.48
2023-01-03T17:44:18.462Z,12.88
2023-01-03T17:47:04.474Z,12.70
2023-01-03T17:49:31.959Z,12.85
2023-01-03T17:52:01.874Z,12.35
2023-01-03T17:54:37.475Z,12.39
2023-01-03T17:57:05.472Z,12.50
2023-01-03T17:59:32.990Z,12.60
2023-01-03T18:02:00.791Z,12.31
2023-01-03T18:04:50.299Z,12.52
2023-01-03T18:10:22.913Z,12.47
2023-01-03T18:12:50.718Z,12.29
2023-01-03T18:15:20.784Z,11.94
2023-01-03T18:17:49.015Z,12.00
2023-01-03T18:20:18.255Z,11.89
2023-01-03T18:22:46.043Z,12.12
2023-01-03T18:25:22.451Z,12.30
2023-01-03T18:27:54.136Z,12.25
2023-01-03T18:30:21.636Z,12.11
2023-01-03T18:32:49.174Z,12.36
2023-01-03T18:35:24.240Z,12.10
2023-01-03T18:37:55.739Z,12.77
2023-01-03T18:40:27.711Z,12.85
2023-01-03T18:43:10.292Z,12.75
2023-01-03T18:45:38.925Z,12.68
2023-01-03T18:48:06.670Z,12.74
2023-01-03T18:50:34.532Z,12.77
2023-01-03T18:53:04.396Z,12.76
2023-01-03T18:55:35.303Z,12.51
2023-01-03T18:58:28.639Z,12.64
2023-01-03T19:00:55.971Z,12.57
2023-01-03T19:03:29.490Z,12.86
2023-01-03T19:05:58.936Z,12.56
2023-01-03T19:08:29.999Z,12.33
2023-01-03T19:11:06.295Z,12.00
2023-01-03T19:13:50.519Z,12.14
2023-01-03T19:16:30.430Z,12.32
2023-01-03T19:18:58.499Z,12.23
2023-01-03T19:21:30.544Z,11.91
2023-01-03T19:24:13.874Z,12.37
2023-01-03T19:26:48.608Z,12.58
2023-01-03T19:29:23.931Z,12.65
2023-01-03T19:31:53.471Z,12.73
2023-01-03T19:34:26.237Z,12.55
2023-01-03T19:36:54.837Z,12.82
2023-01-03T19:39:25.605Z,12.74
2023-01-03T19:42:16.704Z,12.74
2023-01-03T19:44:44.592Z,12.52
2023-01-03T19:47:14.987Z,12.24
2023-01-03T19:49:43.375Z,12.28
2023-01-03T19:52:10.869Z,12.43
2023-01-03T19:54:38.345Z,12.90
2023-01-03T19:57:25.173Z,12.99
2023-01-03T19:59:58.018Z,13.06
2023-01-03T20:02:36.955Z,12.99
2023-01-03T20:05:22.903Z,13.28
2023-01-03T20:07:50.994Z,12.93
2023-01-03T20:10:23.999Z,13.31
2023-01-03T20:12:56.170Z,12.94
2023-01-03T20:15:28.729Z,13.14
2023-01-03T20:17:56.340Z,13.01
2023-01-03T20:20:27.940Z,13.15
2023-01-03T20:23:10.136Z,13.04
2023-01-03T20:25:37.774Z,13.09
2023-01-03T20:28:05.771Z,13.07
2023-01-03T20:30:34.138Z,12.98
2023-01-03T20:33:01.588Z,12.94
2023-01-03T20:38:24.681Z,13.03
2023-01-03T20:40:53.232Z,13.03
2023-01-03T20:43:20.676Z,13.06
2023-01-03T20:45:51.720Z,13.20
2023-01-03T20:48:25.018Z,13.08
2023-01-03T20:50:52.740Z,13.30
2023-01-03T20:53:23.058Z,13.03
2023-01-03T20:55:51.336Z,13.24
2023-01-03T20:58:21.709Z,13.02
2023-01-03T21:00:49.145Z,13.21
2023-01-03T21:03:17.118Z,13.09
2023-01-03T21:05:44.733Z,13.03
2023-01-03T21:08:35.103Z,13.29
2023-01-03T21:11:02.542Z,12.85
2023-01-03T21:13:29.866Z,13.11
2023-01-03T21:15:57.159Z,13.05
2023-01-03T21:18:24.450Z,13.09
2023-01-03T21:20:52.053Z,12.95
2023-01-03T21:23:22.589Z,13.03
2023-01-03T21:25:50.727Z,12.97
2023-01-03T21:28:18.297Z,13.17
2023-01-03T21:30:45.617Z,13.34
2023-01-03T21:33:21.725Z,13.29
2023-01-03T21:35:50.581Z,13.35
2023-01-03T21:38:18.878Z,13.15
2023-01-03T21:40:49.225Z,13.13
2023-01-03T21:43:16.916Z,13.14
2023-01-03T21:45:46.688Z,13.37
2023-01-03T21:48:16.620Z,13.25
2023-01-03T21:50:45.925Z,12.90
2023-01-03T21:53:14.864Z,13.35
2023-01-03T21:55:42.322Z,13.96
2023-01-03T21:58:22.044Z,14.54
2023-01-03T22:00:49.410Z,14.74
2023-01-03T22:03:36.412Z,14.33
2023-01-03T22:06:08.731Z,13.06
2023-01-03T22:08:36.071Z,13.23
2023-01-03T22:11:03.898Z,13.41
2023-01-03T22:13:31.704Z,13.65
2023-01-03T22:16:07.339Z,13.09
2023-01-03T22:18:35.371Z,13.36
2023-01-03T22:21:08.264Z,13.44
2023-01-03T22:23:36.744Z,13.48
2023-01-03T22:26:10.555Z,13.44
2023-01-03T22:28:40.037Z,13.12
2023-01-03T22:31:18.867Z,12.94
2023-01-03T22:33:47.531Z,13.16
2023-01-03T22:36:15.568Z,13.32
2023-01-03T22:38:43.372Z,13.25
2023-01-03T22:41:13.059Z,13.52
2023-01-03T22:43:41.218Z,13.46
2023-01-03T22:46:09.952Z,13.18
2023-01-03T22:48:37.732Z,13.01
2023-01-03T22:51:07.097Z,13.30
2023-01-03T22:53:35.268Z,13.33
2023-01-03T22:56:06.911Z,13.43
2023-01-03T22:58:35.016Z,13.28
2023-01-03T23:01:07.303Z,13.39
2023-01-03T23:03:34.798Z,13.32
2023-01-03T23:06:10.975Z,13.49
2023-01-03T23:08:38.306Z,13.44
2023-01-03T23:11:31.477Z,13.54
2023-01-03T23:14:02.541Z,13.11
2023-01-03T23:16:31.221Z,13.33
2023-01-03T23:18:59.268Z,13.71
2023-01-03T23:21:26.495Z,13.50
2023-01-03T23:23:53.790Z,13.31
2023-01-03T23:26:23.443Z,13.49
2023-01-03T23:28:57.780Z,13.51
2023-01-03T23:31:27.335Z,13.52
2023-01-03T23:33:56.581Z,12.96
2023-01-03T23:36:24.069Z,12.75
2023-01-03T23:38:51.390Z,12.78
2023-01-03T23:41:19.695Z,13.14
2023-01-03T23:43:47.114Z,13.18
2023-01-03T23:46:17.472Z,13.51
2023-01-03T23:48:45.112Z,13.32
2023-01-03T23:51:12.541Z,13.11
2023-01-03T23:53:42.012Z,13.51
2023-01-03T23:56:13.612Z,13.57
2023-01-03T23:58:41.301Z,13.46
